sensor_id;sensor_type;location;lat;lon;timestamp;temperature;humidity
21085;DHT22;34247;50.064;19.970;2023-07-02T00:01:30;34.00;39.20
21085;DHT22;34247;50.064;19.970;2023-07-02T00:03:09;34.00;39.20
21085;DHT22;34247;50.064;19.970;2023-07-02T00:04:46;34.00;39.20
21085;DHT22;34247;50.064;19.970;2023-07-02T00:06:20;34.00;39.30
21085;DHT22;34247;50.064;19.970;2023-07-02T00:07:54;34.00;39.30
21085;DHT22;34247;50.064;19.970;2023-07-02T00:09:29;34.00;39.30
21085;DHT22;34247;50.064;19.970;2023-07-02T00:11:04;34.00;39.30
21085;DHT22;34247;50.064;19.970;2023-07-02T00:12:40;34.00;39.30
21085;DHT22;34247;50.064;19.970;2023-07-02T00:14:15;34.00;39.30
21085;DHT22;34247;50.064;19.970;2023-07-02T00:15:49;34.00;39.30
21085;DHT22;34247;50.064;19.970;2023-07-02T00:17:22;34.00;39.40
21085;DHT22;34247;50.064;19.970;2023-07-02T00:18:55;34.00;39.40
21085;DHT22;34247;50.064;19.970;2023-07-02T00:20:29;33.90;39.40
21085;DHT22;34247;50.064;19.970;2023-07-02T00:22:07;33.90;39.50
21085;DHT22;34247;50.064;19.970;2023-07-02T00:23:41;33.90;39.50
21085;DHT22;34247;50.064;19.970;2023-07-02T00:25:15;33.90;39.50
21085;DHT22;34247;50.064;19.970;2023-07-02T00:26:48;33.90;39.50
21085;DHT22;34247;50.064;19.970;2023-07-02T00:28:22;33.90;39.40
21085;DHT22;34247;50.064;19.970;2023-07-02T00:29:56;33.80;39.40
21085;DHT22;34247;50.064;19.970;2023-07-02T00:31:32;33.80;39.40
21085;DHT22;34247;50.064;19.970;2023-07-02T00:33:06;33.80;39.50
21085;DHT22;34247;50.064;19.970;2023-07-02T00:34:40;33.80;39.40
21085;DHT22;34247;50.064;19.970;2023-07-02T00:36:14;33.80;39.40
21085;DHT22;34247;50.064;19.970;2023-07-02T00:37:48;33.70;39.50
21085;DHT22;34247;50.064;19.970;2023-07-02T00:39:22;33.70;39.40
21085;DHT22;34247;50.064;19.970;2023-07-02T00:40:56;33.70;39.60
21085;DHT22;34247;50.064;19.970;2023-07-02T00:42:29;33.70;39.60
21085;DHT22;34247;50.064;19.970;2023-07-02T00:44:04;33.70;39.70
21085;DHT22;34247;50.064;19.970;2023-07-02T00:45:39;33.60;39.70
21085;DHT22;34247;50.064;19.970;2023-07-02T00:47:13;33.70;39.90
21085;DHT22;34247;50.064;19.970;2023-07-02T00:48:48;33.70;40.00
21085;DHT22;34247;50.064;19.970;2023-07-02T00:50:23;33.70;39.90
21085;DHT22;34247;50.064;19.970;2023-07-02T00:52:01;33.60;39.90
21085;DHT22;34247;50.064;19.970;2023-07-02T00:53:37;33.60;39.90
21085;DHT22;34247;50.064;19.970;2023-07-02T00:55:10;33.60;39.90
21085;DHT22;34247;50.064;19.970;2023-07-02T00:56:43;33.60;39.90
21085;DHT22;34247;50.064;19.970;2023-07-02T00:58:16;33.60;39.90
21085;DHT22;34247;50.064;19.970;2023-07-02T00:59:50;33.60;39.90
21085;DHT22;34247;50.064;19.970;2023-07-02T01:01:25;33.60;39.90
21085;DHT22;34247;50.064;19.970;2023-07-02T01:02:59;33.60;39.80
21085;DHT22;34247;50.064;19.970;2023-07-02T01:04:32;33.60;39.90
21085;DHT22;34247;50.064;19.970;2023-07-02T01:06:05;33.60;39.80
21085;DHT22;34247;50.064;19.970;2023-07-02T01:07:38;33.60;39.90
21085;DHT22;34247;50.064;19.970;2023-07-02T01:09:11;33.60;39.80
21085;DHT22;34247;50.064;19.970;2023-07-02T01:10:44;33.60;39.90
21085;DHT22;34247;50.064;19.970;2023-07-02T01:12:19;33.60;39.90
21085;DHT22;34247;50.064;19.970;2023-07-02T01:13:57;33.60;39.90
21085;DHT22;34247;50.064;19.970;2023-07-02T01:15:36;33.60;39.80
21085;DHT22;34247;50.064;19.970;2023-07-02T01:17:12;33.60;39.80
21085;DHT22;34247;50.064;19.970;2023-07-02T01:18:47;33.50;39.80
21085;DHT22;34247;50.064;19.970;2023-07-02T01:20:24;33.50;39.60
21085;DHT22;34247;50.064;19.970;2023-07-02T01:22:01;33.50;39.80
21085;DHT22;34247;50.064;19.970;2023-07-02T01:23:36;33.40;39.80
21085;DHT22;34247;50.064;19.970;2023-07-02T01:25:10;33.40;39.90
21085;DHT22;34247;50.064;19.970;2023-07-02T01:26:44;33.40;40.00
21085;DHT22;34247;50.064;19.970;2023-07-02T01:28:18;33.40;40.00
21085;DHT22;34247;50.064;19.970;2023-07-02T01:29:52;33.40;40.00
21085;DHT22;34247;50.064;19.970;2023-07-02T01:31:26;33.40;40.00
21085;DHT22;34247;50.064;19.970;2023-07-02T01:32:59;33.40;40.00
21085;DHT22;34247;50.064;19.970;2023-07-02T01:34:33;33.40;40.00
21085;DHT22;34247;50.064;19.970;2023-07-02T01:36:06;33.40;40.00
21085;DHT22;34247;50.064;19.970;2023-07-02T01:37:40;33.40;40.00
21085;DHT22;34247;50.064;19.970;2023-07-02T01:39:14;33.40;39.90
21085;DHT22;34247;50.064;19.970;2023-07-02T01:40:48;33.40;40.00
21085;DHT22;34247;50.064;19.970;2023-07-02T01:42:22;33.40;40.10
21085;DHT22;34247;50.064;19.970;2023-07-02T01:43:56;33.40;40.10
21085;DHT22;34247;50.064;19.970;2023-07-02T01:45:29;33.40;40.00
21085;DHT22;34247;50.064;19.970;2023-07-02T01:47:04;33.40;40.00
21085;DHT22;34247;50.064;19.970;2023-07-02T01:48:37;33.40;40.00
21085;DHT22;34247;50.064;19.970;2023-07-02T01:50:11;33.40;40.00
21085;DHT22;34247;50.064;19.970;2023-07-02T01:51:49;33.40;39.90
21085;DHT22;34247;50.064;19.970;2023-07-02T01:53:26;33.40;40.10
21085;DHT22;34247;50.064;19.970;2023-07-02T01:55:04;33.40;39.90
21085;DHT22;34247;50.064;19.970;2023-07-02T01:56:38;33.40;39.90
21085;DHT22;34247;50.064;19.970;2023-07-02T01:58:13;33.40;39.80
21085;DHT22;34247;50.064;19.970;2023-07-02T01:59:46;33.40;39.80
21085;DHT22;34247;50.064;19.970;2023-07-02T02:04:48;33.40;39.80
21085;DHT22;34247;50.064;19.970;2023-07-02T02:06:21;33.40;39.60
21085;DHT22;34247;50.064;19.970;2023-07-02T02:07:56;33.40;39.80
21085;DHT22;34247;50.064;19.970;2023-07-02T02:09:35;33.40;39.80
21085;DHT22;34247;50.064;19.970;2023-07-02T02:11:12;33.40;39.80
21085;DHT22;34247;50.064;19.970;2023-07-02T02:12:45;33.40;39.80
21085;DHT22;34247;50.064;19.970;2023-07-02T02:14:19;33.40;39.80
21085;DHT22;34247;50.064;19.970;2023-07-02T02:15:54;33.40;39.70
21085;DHT22;34247;50.064;19.970;2023-07-02T02:17:28;33.40;39.70
21085;DHT22;34247;50.064;19.970;2023-07-02T02:19:05;33.40;39.70
21085;DHT22;34247;50.064;19.970;2023-07-02T02:20:42;33.40;39.70
21085;DHT22;34247;50.064;19.970;2023-07-02T02:22:16;33.40;39.70
21085;DHT22;34247;50.064;19.970;2023-07-02T02:23:50;33.50;39.80
21085;DHT22;34247;50.064;19.970;2023-07-02T02:25:26;33.50;39.70
21085;DHT22;34247;50.064;19.970;2023-07-02T02:27:00;33.50;39.70
21085;DHT22;34247;50.064;19.970;2023-07-02T02:28:34;33.50;39.60
21085;DHT22;34247;50.064;19.970;2023-07-02T02:30:08;33.50;39.60
21085;DHT22;34247;50.064;19.970;2023-07-02T02:31:45;33.50;39.50
21085;DHT22;34247;50.064;19.970;2023-07-02T02:33:19;33.50;39.50
21085;DHT22;34247;50.064;19.970;2023-07-02T02:34:54;33.50;39.50
21085;DHT22;34247;50.064;19.970;2023-07-02T02:36:27;33.50;39.40
21085;DHT22;34247;50.064;19.970;2023-07-02T02:38:03;33.50;39.40
21085;DHT22;34247;50.064;19.970;2023-07-02T02:39:37;33.50;39.40
21085;DHT22;34247;50.064;19.970;2023-07-02T02:41:11;33.50;39.40
21085;DHT22;34247;50.064;19.970;2023-07-02T02:42:45;33.50;39.30
21085;DHT22;34247;50.064;19.970;2023-07-02T02:44:19;33.50;39.20
21085;DHT22;34247;50.064;19.970;2023-07-02T02:45:52;33.50;39.20
21085;DHT22;34247;50.064;19.970;2023-07-02T02:47:25;33.50;39.20
21085;DHT22;34247;50.064;19.970;2023-07-02T02:48:58;33.50;39.20
21085;DHT22;34247;50.064;19.970;2023-07-02T02:50:33;33.50;39.20
21085;DHT22;34247;50.064;19.970;2023-07-02T02:52:09;33.50;39.20
21085;DHT22;34247;50.064;19.970;2023-07-02T02:53:43;33.50;39.30
21085;DHT22;34247;50.064;19.970;2023-07-02T02:55:17;33.50;39.30
21085;DHT22;34247;50.064;19.970;2023-07-02T02:56:50;33.50;39.20
21085;DHT22;34247;50.064;19.970;2023-07-02T02:58:23;33.50;39.20
21085;DHT22;34247;50.064;19.970;2023-07-02T02:59:56;33.50;39.30
21085;DHT22;34247;50.064;19.970;2023-07-02T03:01:30;33.50;39.30
21085;DHT22;34247;50.064;19.970;2023-07-02T03:03:04;33.50;39.30
21085;DHT22;34247;50.064;19.970;2023-07-02T03:04:40;33.50;39.30
21085;DHT22;34247;50.064;19.970;2023-07-02T03:06:14;33.50;39.30
21085;DHT22;34247;50.064;19.970;2023-07-02T03:07:49;33.40;39.30
21085;DHT22;34247;50.064;19.970;2023-07-02T03:09:23;33.40;39.40
21085;DHT22;34247;50.064;19.970;2023-07-02T03:10:56;33.40;39.40
21085;DHT22;34247;50.064;19.970;2023-07-02T03:12:29;33.40;39.40
21085;DHT22;34247;50.064;19.970;2023-07-02T03:14:03;33.40;39.40
21085;DHT22;34247;50.064;19.970;2023-07-02T03:15:39;33.50;39.40
21085;DHT22;34247;50.064;19.970;2023-07-02T03:17:13;33.40;39.30
21085;DHT22;34247;50.064;19.970;2023-07-02T03:18:48;33.50;39.30
21085;DHT22;34247;50.064;19.970;2023-07-02T03:20:23;33.40;39.20
21085;DHT22;34247;50.064;19.970;2023-07-02T03:21:58;33.50;39.20
21085;DHT22;34247;50.064;19.970;2023-07-02T03:23:32;33.50;39.20
21085;DHT22;34247;50.064;19.970;2023-07-02T03:25:06;33.50;39.20
21085;DHT22;34247;50.064;19.970;2023-07-02T03:26:41;33.50;39.20
21085;DHT22;34247;50.064;19.970;2023-07-02T03:28:16;33.40;39.80
21085;DHT22;34247;50.064;19.970;2023-07-02T03:29:51;33.50;39.20
21085;DHT22;34247;50.064;19.970;2023-07-02T03:31:26;33.50;39.20
21085;DHT22;34247;50.064;19.970;2023-07-02T03:32:59;33.50;39.00
21085;DHT22;34247;50.064;19.970;2023-07-02T03:34:33;33.50;39.00
21085;DHT22;34247;50.064;19.970;2023-07-02T03:36:08;33.50;39.10
21085;DHT22;34247;50.064;19.970;2023-07-02T03:37:44;33.50;39.00
21085;DHT22;34247;50.064;19.970;2023-07-02T03:39:18;33.50;39.10
21085;DHT22;34247;50.064;19.970;2023-07-02T03:40:52;33.50;39.10
21085;DHT22;34247;50.064;19.970;2023-07-02T03:42:26;33.50;39.10
21085;DHT22;34247;50.064;19.970;2023-07-02T03:44:00;33.50;39.00
21085;DHT22;34247;50.064;19.970;2023-07-02T03:45:35;33.50;39.10
21085;DHT22;34247;50.064;19.970;2023-07-02T03:47:08;33.50;39.20
21085;DHT22;34247;50.064;19.970;2023-07-02T03:48:43;33.50;39.20
21085;DHT22;34247;50.064;19.970;2023-07-02T03:50:16;33.50;39.20
21085;DHT22;34247;50.064;19.970;2023-07-02T03:51:49;33.50;39.10
21085;DHT22;34247;50.064;19.970;2023-07-02T03:53:23;33.50;39.10
21085;DHT22;34247;50.064;19.970;2023-07-02T03:54:57;33.50;39.00
21085;DHT22;34247;50.064;19.970;2023-07-02T17:06:35;35.30;28.00
21085;DHT22;34247;50.064;19.970;2023-07-02T17:11:56;35.20;27.90
21085;DHT22;34247;50.064;19.970;2023-07-02T17:18:34;35.30;28.80
21085;DHT22;34247;50.064;19.970;2023-07-02T17:20:08;35.30;28.90
21085;DHT22;34247;50.064;19.970;2023-07-02T17:21:45;35.30;28.90
21085;DHT22;34247;50.064;19.970;2023-07-02T17:25:40;35.20;28.90
21085;DHT22;34247;50.064;19.970;2023-07-02T17:27:19;35.20;28.90
21085;DHT22;34247;50.064;19.970;2023-07-02T17:28:58;35.20;28.80
21085;DHT22;34247;50.064;19.970;2023-07-02T17:30:31;35.30;29.10
21085;DHT22;34247;50.064;19.970;2023-07-02T17:32:07;35.30;29.20
21085;DHT22;34247;50.064;19.970;2023-07-02T17:33:42;35.30;29.20
21085;DHT22;34247;50.064;19.970;2023-07-02T17:35:16;35.30;29.30
21085;DHT22;34247;50.064;19.970;2023-07-02T17:36:54;35.30;29.30
21085;DHT22;34247;50.064;19.970;2023-07-02T17:38:29;35.30;29.30
21085;DHT22;34247;50.064;19.970;2023-07-02T17:40:02;35.30;29.30
21085;DHT22;34247;50.064;19.970;2023-07-02T17:41:36;35.30;29.50
21085;DHT22;34247;50.064;19.970;2023-07-02T17:43:09;35.40;29.60
21085;DHT22;34247;50.064;19.970;2023-07-02T17:44:44;35.30;29.20
21085;DHT22;34247;50.064;19.970;2023-07-02T17:46:18;35.30;29.40
21085;DHT22;34247;50.064;19.970;2023-07-02T17:47:51;35.30;29.70
21085;DHT22;34247;50.064;19.970;2023-07-02T17:49:27;35.30;29.60
21085;DHT22;34247;50.064;19.970;2023-07-02T17:51:01;35.30;29.50
21085;DHT22;34247;50.064;19.970;2023-07-02T17:52:33;35.20;29.70
21085;DHT22;34247;50.064;19.970;2023-07-02T17:54:07;35.20;29.60
21085;DHT22;34247;50.064;19.970;2023-07-02T17:55:48;35.20;29.70
21085;DHT22;34247;50.064;19.970;2023-07-02T17:57:40;35.20;29.90
21085;DHT22;34247;50.064;19.970;2023-07-02T17:59:18;35.20;30.00
21085;DHT22;34247;50.064;19.970;2023-07-02T18:01:20;35.20;29.90
21085;DHT22;34247;50.064;19.970;2023-07-02T18:03:03;35.20;30.00
21085;DHT22;34247;50.064;19.970;2023-07-02T18:04:37;35.10;30.00
21085;DHT22;34247;50.064;19.970;2023-07-02T18:06:12;35.10;30.00
21085;DHT22;34247;50.064;19.970;2023-07-02T18:07:45;35.10;30.00
21085;DHT22;34247;50.064;19.970;2023-07-02T18:09:19;35.10;30.00
21085;DHT22;34247;50.064;19.970;2023-07-02T18:10:52;35.10;30.00
21085;DHT22;34247;50.064;19.970;2023-07-02T18:12:25;35.10;30.20
21085;DHT22;34247;50.064;19.970;2023-07-02T18:13:58;35.10;30.10
21085;DHT22;34247;50.064;19.970;2023-07-02T18:15:31;35.10;30.20
21085;DHT22;34247;50.064;19.970;2023-07-02T18:17:04;35.10;30.30
21085;DHT22;34247;50.064;19.970;2023-07-02T18:18:37;35.10;30.30
21085;DHT22;34247;50.064;19.970;2023-07-02T18:20:11;35.10;30.30
21085;DHT22;34247;50.064;19.970;2023-07-02T18:21:44;35.10;30.20
21085;DHT22;34247;50.064;19.970;2023-07-02T18:23:17;35.10;30.30
21085;DHT22;34247;50.064;19.970;2023-07-02T18:24:51;35.10;30.40
21085;DHT22;34247;50.064;19.970;2023-07-02T18:26:24;35.10;30.40
21085;DHT22;34247;50.064;19.970;2023-07-02T18:28:09;35.10;30.50
21085;DHT22;34247;50.064;19.970;2023-07-02T18:29:46;35.00;30.50
21085;DHT22;34247;50.064;19.970;2023-07-02T18:31:20;35.10;30.60
21085;DHT22;34247;50.064;19.970;2023-07-02T18:32:53;35.10;30.60
21085;DHT22;34247;50.064;19.970;2023-07-02T18:34:27;35.00;30.50
21085;DHT22;34247;50.064;19.970;2023-07-02T18:36:00;35.00;30.60
21085;DHT22;34247;50.064;19.970;2023-07-02T18:37:32;35.00;30.50
21085;DHT22;34247;50.064;19.970;2023-07-02T18:39:08;35.00;30.50
21085;DHT22;34247;50.064;19.970;2023-07-02T18:40:41;35.00;30.50
21085;DHT22;34247;50.064;19.970;2023-07-02T18:42:15;35.00;30.60
21085;DHT22;34247;50.064;19.970;2023-07-02T18:43:48;35.00;30.70
21085;DHT22;34247;50.064;19.970;2023-07-02T18:45:21;35.00;30.70
21085;DHT22;34247;50.064;19.970;2023-07-02T18:46:54;34.90;30.70
21085;DHT22;34247;50.064;19.970;2023-07-02T18:48:27;34.90;30.60
21085;DHT22;34247;50.064;19.970;2023-07-02T18:50:00;34.90;30.60
21085;DHT22;34247;50.064;19.970;2023-07-02T18:51:33;34.90;30.60
21085;DHT22;34247;50.064;19.970;2023-07-02T18:53:06;34.90;30.60
21085;DHT22;34247;50.064;19.970;2023-07-02T18:54:39;34.90;30.50
21085;DHT22;34247;50.064;19.970;2023-07-02T18:56:13;34.90;30.60
21085;DHT22;34247;50.064;19.970;2023-07-02T18:57:46;34.90;30.60
21085;DHT22;34247;50.064;19.970;2023-07-02T18:59:19;34.90;30.50
21085;DHT22;34247;50.064;19.970;2023-07-02T19:00:53;34.80;31.10
21085;DHT22;34247;50.064;19.970;2023-07-02T19:02:26;34.80;30.50
21085;DHT22;34247;50.064;19.970;2023-07-02T19:04:00;34.80;30.50
21085;DHT22;34247;50.064;19.970;2023-07-02T19:05:33;34.80;30.50
21085;DHT22;34247;50.064;19.970;2023-07-02T19:07:06;34.80;30.50
21085;DHT22;34247;50.064;19.970;2023-07-02T19:08:39;34.70;30.40
21085;DHT22;34247;50.064;19.970;2023-07-02T19:10:13;34.70;30.60
21085;DHT22;34247;50.064;19.970;2023-07-02T19:11:47;34.70;30.60
21085;DHT22;34247;50.064;19.970;2023-07-02T19:13:20;34.70;30.70
21085;DHT22;34247;50.064;19.970;2023-07-02T19:14:54;34.70;30.60
21085;DHT22;34247;50.064;19.970;2023-07-02T19:16:29;34.60;30.60
21085;DHT22;34247;50.064;19.970;2023-07-02T19:18:03;34.60;30.60
21085;DHT22;34247;50.064;19.970;2023-07-02T19:19:38;34.60;31.10
21085;DHT22;34247;50.064;19.970;2023-07-02T19:21:12;34.60;30.80
21085;DHT22;34247;50.064;19.970;2023-07-02T19:22:45;34.60;30.90
21085;DHT22;34247;50.064;19.970;2023-07-02T19:24:19;34.60;30.90
21085;DHT22;34247;50.064;19.970;2023-07-02T19:25:58;34.60;30.90
21085;DHT22;34247;50.064;19.970;2023-07-02T19:27:44;34.60;31.10
21085;DHT22;34247;50.064;19.970;2023-07-02T19:29:30;34.60;31.40
21085;DHT22;34247;50.064;19.970;2023-07-02T19:31:06;34.60;31.50
21085;DHT22;34247;50.064;19.970;2023-07-02T19:32:43;34.60;31.50
21085;DHT22;34247;50.064;19.970;2023-07-02T19:34:19;34.60;31.30
21085;DHT22;34247;50.064;19.970;2023-07-02T19:35:52;34.60;31.30
21085;DHT22;34247;50.064;19.970;2023-07-02T19:37:26;34.60;31.10
21085;DHT22;34247;50.064;19.970;2023-07-02T19:39:09;34.60;31.10
21085;DHT22;34247;50.064;19.970;2023-07-02T19:41:44;34.60;31.20
21085;DHT22;34247;50.064;19.970;2023-07-02T19:43:18;34.60;31.40
21085;DHT22;34247;50.064;19.970;2023-07-02T19:44:56;34.60;31.20
21085;DHT22;34247;50.064;19.970;2023-07-02T19:46:30;34.60;31.40
21085;DHT22;34247;50.064;19.970;2023-07-02T19:48:03;34.60;31.30
21085;DHT22;34247;50.064;19.970;2023-07-02T19:49:38;34.60;31.30
21085;DHT22;34247;50.064;19.970;2023-07-02T19:51:11;34.60;31.30
21085;DHT22;34247;50.064;19.970;2023-07-02T19:52:44;34.60;31.20
21085;DHT22;34247;50.064;19.970;2023-07-02T19:54:17;34.50;31.10
21085;DHT22;34247;50.064;19.970;2023-07-02T19:55:51;34.50;31.20
21085;DHT22;34247;50.064;19.970;2023-07-02T19:57:24;34.50;31.30
21085;DHT22;34247;50.064;19.970;2023-07-02T19:58:57;34.50;31.40
21085;DHT22;34247;50.064;19.970;2023-07-02T20:00:30;34.40;31.50
21085;DHT22;34247;50.064;19.970;2023-07-02T20:02:03;34.40;31.50
21085;DHT22;34247;50.064;19.970;2023-07-02T20:03:36;34.40;31.70
21085;DHT22;34247;50.064;19.970;2023-07-02T20:05:10;34.40;31.80
21085;DHT22;34247;50.064;19.970;2023-07-02T20:06:44;34.30;31.60
21085;DHT22;34247;50.064;19.970;2023-07-02T20:08:17;34.30;31.70
21085;DHT22;34247;50.064;19.970;2023-07-02T20:09:50;34.30;31.70
21085;DHT22;34247;50.064;19.970;2023-07-02T20:11:23;34.30;31.70
21085;DHT22;34247;50.064;19.970;2023-07-02T20:12:57;34.30;31.70
21085;DHT22;34247;50.064;19.970;2023-07-02T20:14:30;34.30;31.60
21085;DHT22;34247;50.064;19.970;2023-07-02T20:16:03;34.30;31.60
21085;DHT22;34247;50.064;19.970;2023-07-02T20:17:36;34.20;31.50
21085;DHT22;34247;50.064;19.970;2023-07-02T20:19:09;34.20;31.70
21085;DHT22;34247;50.064;19.970;2023-07-02T20:20:42;34.20;31.90
21085;DHT22;34247;50.064;19.970;2023-07-02T20:22:16;34.20;32.00
21085;DHT22;34247;50.064;19.970;2023-07-02T20:23:50;34.10;32.00
21085;DHT22;34247;50.064;19.970;2023-07-02T20:25:23;34.10;31.90
21085;DHT22;34247;50.064;19.970;2023-07-02T20:26:59;34.10;31.90
21085;DHT22;34247;50.064;19.970;2023-07-02T20:28:32;34.20;31.90
21085;DHT22;34247;50.064;19.970;2023-07-02T20:30:07;34.10;31.80
21085;DHT22;34247;50.064;19.970;2023-07-02T20:31:40;34.10;31.90
21085;DHT22;34247;50.064;19.970;2023-07-02T20:33:13;34.10;31.90
21085;DHT22;34247;50.064;19.970;2023-07-02T20:34:47;34.10;32.00
21085;DHT22;34247;50.064;19.970;2023-07-02T20:36:20;34.10;32.00
21085;DHT22;34247;50.064;19.970;2023-07-02T20:37:54;34.10;32.00
21085;DHT22;34247;50.064;19.970;2023-07-02T20:39:27;34.00;32.00
21085;DHT22;34247;50.064;19.970;2023-07-02T20:41:01;34.00;31.90
21085;DHT22;34247;50.064;19.970;2023-07-02T20:42:34;34.00;31.90
21085;DHT22;34247;50.064;19.970;2023-07-02T20:44:07;34.00;31.90
21085;DHT22;34247;50.064;19.970;2023-07-02T20:45:41;34.00;31.80
21085;DHT22;34247;50.064;19.970;2023-07-02T20:47:14;34.00;31.70
21085;DHT22;34247;50.064;19.970;2023-07-02T20:48:48;34.00;31.70
21085;DHT22;34247;50.064;19.970;2023-07-02T20:50:21;34.00;31.80
21085;DHT22;34247;50.064;19.970;2023-07-02T20:51:54;34.00;31.90
21085;DHT22;34247;50.064;19.970;2023-07-02T20:53:27;34.00;31.80
21085;DHT22;34247;50.064;19.970;2023-07-02T20:55:00;34.00;31.90
21085;DHT22;34247;50.064;19.970;2023-07-02T20:56:33;34.00;31.90
21085;DHT22;34247;50.064;19.970;2023-07-02T20:58:06;34.00;32.00
21085;DHT22;34247;50.064;19.970;2023-07-02T20:59:39;34.00;31.90
21085;DHT22;34247;50.064;19.970;2023-07-02T21:01:12;34.00;31.90
21085;DHT22;34247;50.064;19.970;2023-07-02T21:02:45;33.90;31.90
21085;DHT22;34247;50.064;19.970;2023-07-02T21:04:18;33.90;32.00
21085;DHT22;34247;50.064;19.970;2023-07-02T21:05:51;34.00;32.20
21085;DHT22;34247;50.064;19.970;2023-07-02T21:07:25;33.90;32.20
21085;DHT22;34247;50.064;19.970;2023-07-02T21:08:58;33.90;32.10
21085;DHT22;34247;50.064;19.970;2023-07-02T21:10:31;33.90;32.10
21085;DHT22;34247;50.064;19.970;2023-07-02T21:12:05;33.90;32.20
21085;DHT22;34247;50.064;19.970;2023-07-02T21:13:38;33.90;32.20
21085;DHT22;34247;50.064;19.970;2023-07-02T21:15:11;33.90;32.20
21085;DHT22;34247;50.064;19.970;2023-07-02T21:16:44;33.90;32.20
21085;DHT22;34247;50.064;19.970;2023-07-02T21:18:17;33.90;32.20
21085;DHT22;34247;50.064;19.970;2023-07-02T21:19:50;33.90;32.40
21085;DHT22;34247;50.064;19.970;2023-07-02T21:21:23;33.90;32.10
21085;DHT22;34247;50.064;19.970;2023-07-02T21:22:56;33.90;32.00
21085;DHT22;34247;50.064;19.970;2023-07-02T21:24:29;33.80;31.90
21085;DHT22;34247;50.064;19.970;2023-07-02T21:26:02;33.90;32.00
21085;DHT22;34247;50.064;19.970;2023-07-02T21:27:35;33.90;32.20
21085;DHT22;34247;50.064;19.970;2023-07-02T21:29:08;33.80;32.20
21085;DHT22;34247;50.064;19.970;2023-07-02T21:30:46;33.80;32.20
21085;DHT22;34247;50.064;19.970;2023-07-02T21:32:19;33.80;32.30
21085;DHT22;34247;50.064;19.970;2023-07-02T21:33:52;33.80;32.30
21085;DHT22;34247;50.064;19.970;2023-07-02T21:35:25;33.80;32.30
21085;DHT22;34247;50.064;19.970;2023-07-02T21:36:58;33.80;32.40
21085;DHT22;34247;50.064;19.970;2023-07-02T21:38:31;33.80;32.40
21085;DHT22;34247;50.064;19.970;2023-07-02T21:40:04;33.80;32.50
21085;DHT22;34247;50.064;19.970;2023-07-02T21:41:37;33.70;32.40
21085;DHT22;34247;50.064;19.970;2023-07-02T21:43:11;33.70;32.50
21085;DHT22;34247;50.064;19.970;2023-07-02T21:44:44;33.70;32.50
21085;DHT22;34247;50.064;19.970;2023-07-02T21:46:17;33.70;33.10
21085;DHT22;34247;50.064;19.970;2023-07-02T21:47:51;33.70;32.40
21085;DHT22;34247;50.064;19.970;2023-07-02T21:49:24;33.70;32.40
21085;DHT22;34247;50.064;19.970;2023-07-02T21:50:56;33.70;32.30
21085;DHT22;34247;50.064;19.970;2023-07-02T21:52:29;33.70;32.40
21085;DHT22;34247;50.064;19.970;2023-07-02T21:54:02;33.70;32.40
21085;DHT22;34247;50.064;19.970;2023-07-02T21:55:35;33.70;32.30
21085;DHT22;34247;50.064;19.970;2023-07-02T21:57:08;33.70;32.30
21085;DHT22;34247;50.064;19.970;2023-07-02T21:58:41;33.70;32.30
21085;DHT22;34247;50.064;19.970;2023-07-02T22:00:14;33.70;32.20
21085;DHT22;34247;50.064;19.970;2023-07-02T22:01:47;33.60;32.20
21085;DHT22;34247;50.064;19.970;2023-07-02T22:03:20;33.60;32.10
21085;DHT22;34247;50.064;19.970;2023-07-02T22:04:53;33.60;32.10
21085;DHT22;34247;50.064;19.970;2023-07-02T22:06:26;33.60;32.00
21085;DHT22;34247;50.064;19.970;2023-07-02T22:07:59;33.60;32.00
21085;DHT22;34247;50.064;19.970;2023-07-02T22:09:33;33.60;32.00
21085;DHT22;34247;50.064;19.970;2023-07-02T22:11:14;33.60;31.90
21085;DHT22;34247;50.064;19.970;2023-07-02T22:12:57;33.60;31.90
21085;DHT22;34247;50.064;19.970;2023-07-02T22:14:30;33.60;31.90
21085;DHT22;34247;50.064;19.970;2023-07-02T22:16:03;33.60;31.80
21085;DHT22;34247;50.064;19.970;2023-07-02T22:17:36;33.50;31.70
21085;DHT22;34247;50.064;19.970;2023-07-02T22:19:09;33.50;31.70
21085;DHT22;34247;50.064;19.970;2023-07-02T22:20:42;33.50;31.70
21085;DHT22;34247;50.064;19.970;2023-07-02T22:22:15;33.50;31.60
21085;DHT22;34247;50.064;19.970;2023-07-02T22:23:48;33.50;31.70
21085;DHT22;34247;50.064;19.970;2023-07-02T22:25:21;33.50;31.70
21085;DHT22;34247;50.064;19.970;2023-07-02T22:26:54;33.40;31.70
21085;DHT22;34247;50.064;19.970;2023-07-02T22:28:27;33.40;31.70
21085;DHT22;34247;50.064;19.970;2023-07-02T22:30:01;33.40;31.70
21085;DHT22;34247;50.064;19.970;2023-07-02T22:31:34;33.40;31.70
21085;DHT22;34247;50.064;19.970;2023-07-02T22:33:07;33.30;31.70
21085;DHT22;34247;50.064;19.970;2023-07-02T22:34:40;33.30;31.80
21085;DHT22;34247;50.064;19.970;2023-07-02T22:36:13;33.30;31.80
21085;DHT22;34247;50.064;19.970;2023-07-02T22:37:46;33.30;31.90
21085;DHT22;34247;50.064;19.970;2023-07-02T22:39:20;33.20;31.90
21085;DHT22;34247;50.064;19.970;2023-07-02T22:40:52;33.20;32.00
21085;DHT22;34247;50.064;19.970;2023-07-02T22:42:25;33.20;32.10
21085;DHT22;34247;50.064;19.970;2023-07-02T22:43:58;33.20;32.00
21085;DHT22;34247;50.064;19.970;2023-07-02T22:45:31;33.20;32.10
21085;DHT22;34247;50.064;19.970;2023-07-02T22:47:06;33.20;32.10
21085;DHT22;34247;50.064;19.970;2023-07-02T22:48:40;33.10;32.10
21085;DHT22;34247;50.064;19.970;2023-07-02T22:50:15;33.10;32.10
21085;DHT22;34247;50.064;19.970;2023-07-02T22:51:48;33.10;32.10
21085;DHT22;34247;50.064;19.970;2023-07-02T22:53:22;33.00;32.10
21085;DHT22;34247;50.064;19.970;2023-07-02T22:54:55;33.00;32.20
21085;DHT22;34247;50.064;19.970;2023-07-02T22:56:28;32.90;32.20
21085;DHT22;34247;50.064;19.970;2023-07-02T22:58:02;32.90;32.20
21085;DHT22;34247;50.064;19.970;2023-07-02T22:59:35;32.90;32.30
21085;DHT22;34247;50.064;19.970;2023-07-02T23:01:09;32.90;32.40
21085;DHT22;34247;50.064;19.970;2023-07-02T23:02:44;32.90;32.50
21085;DHT22;34247;50.064;19.970;2023-07-02T23:04:19;32.90;32.50
21085;DHT22;34247;50.064;19.970;2023-07-02T23:05:53;32.80;32.50
21085;DHT22;34247;50.064;19.970;2023-07-02T23:07:28;32.80;32.50
21085;DHT22;34247;50.064;19.970;2023-07-02T23:09:07;32.80;32.70
21085;DHT22;34247;50.064;19.970;2023-07-02T23:10:44;32.80;32.70
21085;DHT22;34247;50.064;19.970;2023-07-02T23:12:49;32.80;32.70